KWHP/WHP METAR and TAF weather

Enter ICAO airport designator
Station Type Date Time Source
KWHP METAR 2019/10/15 02:55 UTC NOAA

KWHP 150255Z 00000KT 10SM SKC 18/12 A2997


Station Type Date Time Source
KWHP Decoded METAR 2019/10/15 02:55 UTC NOAA

Los Angeles, Whiteman Airport, CA, United States (KWHP) 34-15N 118-24W
Oct 14, 2019 - 10:55 PM EDT / 2019.10.15 0255 UTC
Wind: Calm:0
Visibility: 10 mile(s):0
Sky conditions: clear
Temperature: 64 F (18 C)
Dew Point: 53 F (12 C)
Relative Humidity: 67%
Pressure (altimeter): 29.97 in. Hg (1014 hPa)
ob: KWHP 150255Z 00000KT 10SM SKC 18/12 A2997
cycle: 3

Station Type Date Time Source
KWHP TAF UTC NOAA

Error!

Example: see airport list